createdAt,value
2018-09-23T00:00:21.694Z,89.02
2018-09-23T00:01:31.512Z,88.93
2018-09-23T00:02:41.595Z,89.02
2018-09-23T00:03:51.735Z,88.93
2018-09-23T00:05:01.812Z,89.02
2018-09-23T00:06:11.899Z,88.93
2018-09-23T00:07:21.716Z,88.93
2018-09-23T00:08:31.778Z,89.12
2018-09-23T00:09:41.914Z,88.93
2018-09-23T00:10:51.480Z,88.64
2018-09-23T00:12:01.285Z,88.93
2018-09-23T00:13:11.358Z,88.93
2018-09-23T00:14:21.177Z,89.02
2018-09-23T00:15:31.255Z,88.93
2018-09-23T00:16:40.813Z,88.54
2018-09-23T00:17:50.894Z,88.93
2018-09-23T00:19:00.997Z,89.02
2018-09-23T00:20:11.111Z,88.98
2018-09-23T00:21:20.924Z,88.88
2018-09-23T00:22:31.002Z,88.88
2018-09-23T00:23:41.082Z,88.98
2018-09-23T00:24:51.209Z,88.88
2018-09-23T00:26:01.280Z,88.79
2018-09-23T00:27:11.409Z,88.69
2018-09-23T00:28:21.502Z,88.98
2018-09-23T00:29:31.592Z,88.98
2018-09-23T00:30:41.422Z,88.98
2018-09-23T00:31:51.503Z,88.93
2018-09-23T00:33:01.583Z,89.07
2018-09-23T00:34:11.408Z,89.17
2018-09-23T00:35:21.510Z,88.88
2018-09-23T00:36:31.591Z,88.88
2018-09-23T00:37:41.670Z,88.88
2018-09-23T00:38:51.503Z,88.98
2018-09-23T00:40:02.329Z,88.98
2018-09-23T00:41:12.416Z,89.07
2018-09-23T00:42:22.499Z,88.98
2018-09-23T00:43:32.583Z,88.88
2018-09-23T00:44:42.670Z,88.88
2018-09-23T00:45:52.748Z,88.98
2018-09-23T00:47:04.829Z,88.79
2018-09-23T00:48:14.911Z,88.83
2018-09-23T00:49:25.045Z,88.88
2018-09-23T00:50:34.590Z,88.79
2018-09-23T00:51:44.656Z,88.59
2018-09-23T00:52:54.738Z,88.79
2018-09-23T00:54:04.556Z,88.93
2018-09-23T00:55:14.124Z,88.79
2018-09-23T00:56:24.194Z,88.98
2018-09-23T00:57:34.277Z,88.98
2018-09-23T00:58:44.102Z,88.88
2018-09-23T00:59:54.179Z,89.17
2018-09-23T01:01:04.319Z,88.88
2018-09-23T01:02:14.381Z,88.98
2018-09-23T01:03:24.204Z,89.46
2018-09-23T01:04:34.014Z,89.26
2018-09-23T01:05:43.844Z,89.36
2018-09-23T01:06:53.926Z,89.36
2018-09-23T01:08:03.737Z,89.36
2018-09-23T01:09:13.821Z,89.03
2018-09-23T01:10:23.913Z,89.03
2018-09-23T01:11:34.000Z,89.03
2018-09-23T01:12:44.127Z,89.17
2018-09-23T01:13:53.960Z,89.17
2018-09-23T01:15:04.051Z,89.12
2018-09-23T01:16:14.138Z,88.84
2018-09-23T01:17:24.239Z,89.03
2018-09-23T01:18:34.130Z,89.32
2018-09-23T01:19:43.938Z,89.32
2018-09-23T01:20:54.038Z,88.93
2018-09-23T01:22:04.110Z,89.12
2018-09-23T01:23:13.922Z,89.12
2018-09-23T01:24:23.728Z,89.03
2018-09-23T01:25:33.541Z,89.32
2018-09-23T01:26:43.634Z,88.74
2018-09-23T01:27:53.465Z,88.74
2018-09-23T01:29:04.197Z,88.55
2018-09-23T01:30:14.299Z,88.84
2018-09-23T01:31:24.094Z,88.93
2018-09-23T01:32:34.150Z,88.93
2018-09-23T01:33:44.217Z,89.03
2018-09-23T01:34:53.763Z,88.84
2018-09-23T01:36:03.885Z,88.84
2018-09-23T01:37:13.699Z,88.93
2018-09-23T01:38:23.787Z,88.93
2018-09-23T01:39:33.861Z,88.65
2018-09-23T01:40:43.934Z,88.74
2018-09-23T01:41:54.158Z,88.74
2018-09-23T01:43:03.966Z,88.93
2018-09-23T01:44:14.099Z,88.65
2018-09-23T01:45:24.180Z,89.12
2018-09-23T01:46:34.257Z,88.74
2018-09-23T01:47:44.388Z,88.74
2018-09-23T01:48:54.464Z,88.93
2018-09-23T01:50:06.256Z,89.03
2018-09-23T01:51:16.579Z,88.93
2018-09-23T01:52:26.644Z,88.74
2018-09-23T01:53:36.451Z,88.84
2018-09-23T01:54:46.533Z,88.84
2018-09-23T01:55:56.416Z,88.93
2018-09-23T01:57:06.871Z,88.84
2018-09-23T01:58:16.934Z,88.93
2018-09-23T01:59:27.034Z,88.74
2018-09-23T02:00:37.149Z,88.84
2018-09-23T02:01:47.344Z,88.84
2018-09-23T02:02:57.412Z,88.84
2018-09-23T02:04:07.226Z,88.84
2018-09-23T02:05:17.323Z,88.74
2018-09-23T02:06:27.395Z,88.74
2018-09-23T02:07:37.516Z,88.93
2018-09-23T02:08:47.596Z,88.74
2018-09-23T02:09:57.694Z,88.74
2018-09-23T02:11:08.698Z,88.74
2018-09-23T02:12:18.797Z,88.93
2018-09-23T02:13:28.617Z,88.84
2018-09-23T02:14:38.455Z,88.84
2018-09-23T02:15:48.273Z,88.84
2018-09-23T02:16:58.111Z,88.93
2018-09-23T02:18:08.823Z,88.55
2018-09-23T02:19:18.380Z,88.93
2018-09-23T02:20:28.451Z,88.93
2018-09-23T02:21:38.540Z,88.84
2018-09-23T02:22:48.664Z,88.65
2018-09-23T02:23:58.747Z,88.45
2018-09-23T02:25:08.829Z,88.93
2018-09-23T02:26:18.648Z,88.93
2018-09-23T02:27:28.736Z,88.93
2018-09-23T02:28:38.808Z,88.93
2018-09-23T02:29:48.895Z,89.03
2018-09-23T02:30:59.079Z,88.84
2018-09-23T02:32:10.830Z,89.03
2018-09-23T02:33:20.381Z,88.93
2018-09-23T02:34:30.476Z,89.03
2018-09-23T02:35:40.563Z,88.84
2018-09-23T02:36:50.708Z,89.12
2018-09-23T02:38:00.792Z,88.84
2018-09-23T02:39:10.873Z,88.74
2018-09-23T02:40:20.957Z,88.93
2018-09-23T02:41:31.048Z,89.12
2018-09-23T02:42:40.860Z,88.84
2018-09-23T02:43:50.936Z,88.93
2018-09-23T02:45:01.924Z,88.93
2018-09-23T02:46:12.026Z,88.93
2018-09-23T02:47:22.094Z,88.84
2018-09-23T02:48:32.183Z,88.45
2018-09-23T02:49:42.260Z,88.74
2018-09-23T02:50:52.348Z,88.65
2018-09-23T02:52:02.421Z,88.65
2018-09-23T02:53:12.503Z,88.26
2018-09-23T02:54:22.607Z,88.65
2018-09-23T02:55:32.679Z,88.45
2018-09-23T02:56:42.497Z,88.65
2018-09-23T02:57:52.566Z,88.65
2018-09-23T02:59:02.579Z,88.45
2018-09-23T03:00:12.496Z,88.65
2018-09-23T03:01:22.566Z,88.65
2018-09-23T03:02:32.388Z,88.84
2018-09-23T03:34:40.982Z,82.87
2018-09-23T03:35:51.065Z,82.97
2018-09-23T03:37:01.155Z,83.64
2018-09-23T03:38:10.964Z,84.31
2018-09-23T03:39:21.048Z,85.36
2018-09-23T03:40:31.118Z,86.04
2018-09-23T03:41:41.181Z,86.8
2018-09-23T03:42:51.246Z,86.51
2018-09-23T03:44:01.300Z,87.08
2018-09-23T03:45:11.360Z,87.7
2018-09-23T03:46:21.437Z,87.61
2018-09-23T03:47:31.529Z,87.9
2018-09-23T03:48:41.598Z,87.61
2018-09-23T03:49:51.436Z,88.28
2018-09-23T03:51:01.520Z,88.23
2018-09-23T03:52:11.616Z,88.32
2018-09-23T03:53:21.688Z,88.23
2018-09-23T03:54:31.495Z,88.03
2018-09-23T03:55:41.565Z,88.23
2018-09-23T03:56:51.645Z,88.65
2018-09-23T03:58:01.977Z,88.56
2018-09-23T03:59:12.554Z,88.56
2018-09-23T04:00:22.643Z,88.56
2018-09-23T04:01:32.745Z,88.65
2018-09-23T04:02:42.818Z,88.46
2018-09-23T04:03:52.968Z,88.65
2018-09-23T04:05:03.755Z,88.46
2018-09-23T04:06:13.578Z,88.84
2018-09-23T04:07:23.660Z,89.08
2018-09-23T04:08:33.736Z,88.84
2018-09-23T04:09:43.819Z,88.75
2018-09-23T04:10:53.891Z,88.79
2018-09-23T04:12:04.216Z,88.89
2018-09-23T04:13:14.665Z,88.79
2018-09-23T04:14:24.749Z,88.41
2018-09-23T04:15:34.887Z,88.6
2018-09-23T04:16:44.991Z,88.6
2018-09-23T04:17:54.816Z,88.6
2018-09-23T04:19:04.366Z,88.41
2018-09-23T04:20:14.449Z,88.6
2018-09-23T04:21:24.272Z,88.98
2018-09-23T04:22:34.346Z,88.51
2018-09-23T04:23:44.441Z,88.41
2018-09-23T04:24:54.541Z,88.79
2018-09-23T04:26:04.438Z,88.41
2018-09-23T04:27:14.527Z,88.6
2018-09-23T04:28:24.616Z,88.51
2018-09-23T04:29:34.451Z,88.35
2018-09-23T04:30:44.553Z,88.31
2018-09-23T04:31:54.637Z,88.6
2018-09-23T04:33:05.427Z,88.45
2018-09-23T04:34:15.518Z,88.65
2018-09-23T04:35:25.595Z,88.74
2018-09-23T04:36:35.402Z,88.65
2018-09-23T04:37:45.496Z,88.26
2018-09-23T04:38:55.575Z,88.26
2018-09-23T04:40:05.646Z,88.65
2018-09-23T04:41:15.735Z,88.26
2018-09-23T04:42:25.810Z,88.74
2018-09-23T04:43:35.904Z,88.84
2018-09-23T04:44:46.139Z,88.84
2018-09-23T04:45:56.492Z,88.65
2018-09-23T04:47:06.572Z,88.65
2018-09-23T04:48:16.637Z,88.74
2018-09-23T04:49:26.732Z,88.65
2018-09-23T04:50:36.917Z,88.74
2018-09-23T04:51:46.991Z,88.84
2018-09-23T04:52:57.048Z,88.65
2018-09-23T04:54:07.115Z,88.65
2018-09-23T04:55:16.976Z,88.84
2018-09-23T04:56:27.413Z,88.65
2018-09-23T04:57:37.492Z,88.74
2018-09-23T04:58:47.571Z,88.65
2018-09-23T04:59:57.378Z,88.65
2018-09-23T05:01:08.861Z,88.65
2018-09-23T05:02:18.698Z,88.65
2018-09-23T05:03:28.786Z,88.74
2018-09-23T05:04:38.871Z,88.74
2018-09-23T05:05:48.950Z,88.31
2018-09-23T05:06:58.758Z,88.26
2018-09-23T05:08:08.555Z,88.74
2018-09-23T05:09:18.376Z,88.74
2018-09-23T05:10:28.445Z,88.55
2018-09-23T05:11:38.528Z,88.59
2018-09-23T05:12:48.092Z,88.65
2018-09-23T05:13:58.168Z,88.65
2018-09-23T05:15:07.778Z,88.65
2018-09-23T05:16:17.836Z,88.65
2018-09-23T05:17:27.639Z,88.65
2018-09-23T05:18:37.709Z,88.69
2018-09-23T05:19:47.839Z,88.69
2018-09-23T05:20:57.919Z,88.65
2018-09-23T05:22:07.740Z,88.26
2018-09-23T05:23:17.324Z,88.45
2018-09-23T05:24:27.431Z,88.45
2018-09-23T05:25:37.571Z,88.88
2018-09-23T05:26:47.657Z,88.79
2018-09-23T05:27:57.743Z,88.93
2018-09-23T05:29:07.727Z,88.88
2018-09-23T05:30:17.817Z,88.93
2018-09-23T05:31:27.623Z,89.22
2018-09-23T05:32:37.697Z,89.03
2018-09-23T05:33:47.765Z,88.65
2018-09-23T05:34:57.832Z,88.74
2018-09-23T05:36:09.008Z,88.65
2018-09-23T05:37:19.074Z,89.03
2018-09-23T05:38:29.155Z,88.35
2018-09-23T05:39:39.022Z,88.26
2018-09-23T05:40:48.849Z,88.65
2018-09-23T05:41:58.913Z,88.55
2018-09-23T05:43:08.783Z,88.55
2018-09-23T05:44:18.597Z,88.35
2018-09-23T05:45:28.429Z,88.55
2018-09-23T05:46:38.501Z,88.55
2018-09-23T05:47:48.331Z,88.35
2018-09-23T05:48:58.401Z,88.74
2018-09-23T05:50:08.476Z,88.45
2018-09-23T05:51:18.543Z,88.55
2018-09-23T05:52:28.647Z,88.74
2018-09-23T05:53:38.721Z,88.35
2018-09-23T05:54:48.551Z,88.45
2018-09-23T05:55:58.655Z,88.35
2018-09-23T05:57:08.896Z,88.17
2018-09-23T05:58:18.989Z,88.59
2018-09-23T05:59:29.061Z,88.55
2018-09-23T06:00:38.914Z,88.65
2018-09-23T06:01:49.041Z,88.59
2018-09-23T06:02:59.200Z,88.55
2018-09-23T06:04:09.449Z,88.65
2018-09-23T06:05:19.553Z,88.55
2018-09-23T06:06:29.696Z,88.49
2018-09-23T06:07:39.770Z,87.92
2018-09-23T06:08:50.031Z,88.11
2018-09-23T06:10:00.107Z,88.02
2018-09-23T06:11:10.542Z,87.82
2018-09-23T06:12:20.699Z,87.73
2018-09-23T06:13:30.800Z,87.96
2018-09-23T06:14:40.930Z,88.35
2018-09-23T06:15:51.003Z,87.58
2018-09-23T06:17:01.109Z,87.58
2018-09-23T06:18:11.074Z,87.49
2018-09-23T06:19:21.402Z,87.49
2018-09-23T06:20:31.483Z,87.58
2018-09-23T06:21:41.295Z,87.68
2018-09-23T06:22:51.367Z,88.06
2018-09-23T06:24:01.468Z,87.77
2018-09-23T06:25:11.409Z,87.87
2018-09-23T06:26:21.584Z,87.96
2018-09-23T06:27:31.668Z,87.39
2018-09-23T06:28:41.770Z,87.39
2018-09-23T06:29:51.635Z,87.72
2018-09-23T06:31:01.176Z,87.62
2018-09-23T06:32:11.259Z,87.43
2018-09-23T06:33:21.085Z,88.1
2018-09-23T06:34:31.160Z,87.53
2018-09-23T06:35:41.024Z,87.62
2018-09-23T06:36:51.111Z,87.24
2018-09-23T06:38:01.257Z,87.24
2018-09-23T06:39:11.168Z,87.05
2018-09-23T06:40:20.716Z,87.09
2018-09-23T06:41:30.592Z,87.29
2018-09-23T06:42:40.693Z,87.67
2018-09-23T06:43:50.769Z,87.29
2018-09-23T06:45:00.843Z,87.76
2018-09-23T06:46:10.942Z,87.86
2018-09-23T06:47:21.031Z,87.76
2018-09-23T06:48:31.159Z,87.34
2018-09-23T06:49:41.243Z,87.53
2018-09-23T06:50:51.331Z,87.62
2018-09-23T06:52:01.202Z,87.53
2018-09-23T06:53:11.282Z,87.43
2018-09-23T06:54:21.096Z,88.1
2018-09-23T06:55:31.177Z,87.72
2018-09-23T06:56:40.999Z,87.43
2018-09-23T06:57:51.212Z,87.82
2018-09-23T06:59:01.080Z,88.3
2018-09-23T07:00:11.164Z,87.92
2018-09-23T07:01:21.235Z,87.82
2018-09-23T07:02:31.043Z,87.72
2018-09-23T07:03:41.114Z,88.3
2018-09-23T07:04:51.301Z,87.92
2018-09-23T07:06:01.566Z,87.82
2018-09-23T07:07:11.643Z,88.1
2018-09-23T07:08:21.731Z,88.3
2018-09-23T07:09:31.562Z,87.92
2018-09-23T07:10:41.661Z,87.82
2018-09-23T07:11:51.511Z,88.49
2018-09-23T07:13:01.593Z,88.49
2018-09-23T07:14:11.660Z,87.92
2018-09-23T07:15:21.525Z,87.92
2018-09-23T07:16:31.599Z,88.39
2018-09-23T07:17:41.682Z,88.2
2018-09-23T07:18:51.782Z,87.62
2018-09-23T07:20:01.860Z,88.1
2018-09-23T07:21:11.661Z,88.3
2018-09-23T07:22:21.492Z,88.49
2018-09-23T07:23:31.563Z,88.39
2018-09-23T07:24:41.456Z,87.62
2018-09-23T07:25:51.772Z,87.48
2018-09-23T07:27:01.869Z,88.15
2018-09-23T07:28:11.731Z,87.86
2018-09-23T07:29:21.827Z,87.38
2018-09-23T07:30:31.929Z,87.29
2018-09-23T07:31:41.746Z,87.09
2018-09-23T07:32:51.820Z,87.29
2018-09-23T07:34:01.703Z,87.29
2018-09-23T07:35:11.533Z,87.57
2018-09-23T07:36:21.635Z,87.48
2018-09-23T07:37:31.710Z,87.13
2018-09-23T07:38:41.832Z,87.33
2018-09-23T07:39:52.139Z,87.81
2018-09-23T07:41:02.204Z,87.13
2018-09-23T07:42:12.293Z,87.04
2018-09-23T07:43:22.126Z,86.89
2018-09-23T07:44:32.214Z,86.89
2018-09-23T07:45:42.302Z,87.08
2018-09-23T07:46:52.394Z,86.6
2018-09-23T07:48:02.662Z,86.55
2018-09-23T07:49:13.123Z,86.74
2018-09-23T07:50:23.216Z,86.55
2018-09-23T07:51:33.367Z,86.74
2018-09-23T07:52:43.472Z,86.55
2018-09-23T07:53:53.573Z,86.49
2018-09-23T07:55:04.314Z,86.21
2018-09-23T07:56:14.474Z,86.59
2018-09-23T07:57:24.444Z,86.69
2018-09-23T07:58:34.526Z,87.17
2018-09-23T07:59:44.349Z,87.12
2018-09-23T08:00:54.461Z,87.12
2018-09-23T08:02:04.579Z,87.9
2018-09-23T08:03:14.692Z,87.22
2018-09-23T08:04:24.852Z,87.32
2018-09-23T08:05:34.431Z,87.76
2018-09-23T08:06:44.535Z,87.85
2018-09-23T08:07:54.702Z,87.95
2018-09-23T08:09:04.913Z,88.24
2018-09-23T08:10:15.031Z,87.85
2018-09-23T08:11:25.146Z,88.04
2018-09-23T08:12:35.453Z,88.43
2018-09-23T08:13:47.204Z,88.33
2018-09-23T08:14:59.995Z,88.29
2018-09-23T08:16:10.957Z,88.29
2018-09-23T08:17:20.855Z,88
2018-09-23T08:18:30.998Z,88.33
2018-09-23T08:19:41.522Z,87.42
2018-09-23T08:20:52.424Z,87.37
2018-09-23T08:22:03.003Z,87.18
2018-09-23T08:23:12.921Z,87.18
2018-09-23T08:24:23.377Z,87.41
2018-09-23T08:25:33.549Z,86.74
2018-09-23T08:26:44.362Z,86.55
2018-09-23T08:27:54.475Z,86.88
2018-09-23T08:29:05.232Z,86.49
2018-09-23T08:30:15.053Z,86.15
2018-09-23T08:31:25.141Z,86.05
2018-09-23T08:32:35.289Z,85.96
2018-09-23T08:33:45.403Z,85.52
2018-09-23T08:34:55.494Z,84.84
2018-09-23T08:36:05.388Z,85.37
2018-09-23T08:37:15.569Z,84.98
2018-09-23T08:38:25.962Z,84.79
2018-09-23T08:39:36.108Z,85.02
2018-09-23T08:40:46.214Z,84.64
2018-09-23T08:41:56.352Z,84.83
2018-09-23T08:43:06.491Z,85.22
2018-09-23T08:44:16.900Z,84.64
2018-09-23T08:45:27.011Z,84.39
2018-09-23T08:46:37.102Z,84.05
2018-09-23T08:47:47.210Z,83.85
2018-09-23T08:48:57.401Z,83.51
2018-09-23T08:50:07.569Z,83.31
2018-09-23T08:51:17.395Z,83.55
2018-09-23T08:52:27.248Z,83.26
2018-09-23T08:53:37.353Z,83.59
2018-09-23T08:54:47.466Z,83.59
2018-09-23T08:55:57.573Z,83.73
2018-09-23T08:57:07.664Z,83.44
2018-09-23T08:58:17.806Z,83.73
2018-09-23T08:59:27.920Z,83.25
2018-09-23T09:00:37.752Z,83.4
2018-09-23T09:01:47.828Z,83.73
2018-09-23T09:02:57.945Z,83.34
2018-09-23T09:04:07.791Z,83.38
2018-09-23T09:05:17.896Z,83.18
2018-09-23T09:06:27.752Z,83.58
2018-09-23T09:07:37.913Z,83.96
2018-09-23T09:08:48.001Z,83.38
2018-09-23T09:09:57.595Z,82.98
2018-09-23T09:11:07.684Z,83.17
2018-09-23T09:12:17.793Z,83.47
2018-09-23T09:13:27.926Z,83.56
2018-09-23T09:14:38.031Z,83.81
2018-09-23T09:15:48.108Z,84.3
2018-09-23T09:16:58.193Z,84.3
2018-09-23T09:18:09.759Z,83.52
2018-09-23T09:19:20.204Z,83.56
2018-09-23T09:20:30.298Z,83.56
2018-09-23T09:21:40.113Z,83.56
2018-09-23T09:22:50.216Z,83.95
2018-09-23T09:24:00.042Z,83.56
2018-09-23T09:25:10.160Z,83.33
2018-09-23T09:26:20.266Z,84.1
2018-09-23T09:27:30.362Z,84.49
2018-09-23T09:28:40.497Z,84.74
2018-09-23T09:29:50.578Z,84.1
2018-09-23T09:31:00.723Z,84.49
2018-09-23T09:32:10.836Z,84.64
2018-09-23T09:33:20.927Z,84.45
2018-09-23T09:34:31.004Z,83.86
2018-09-23T09:35:40.857Z,84.35
2018-09-23T09:36:50.952Z,84.64
2018-09-23T09:38:01.053Z,84.49
2018-09-23T09:39:11.151Z,84.45
2018-09-23T09:40:20.988Z,84.58
2018-09-23T09:41:30.837Z,85.17
2018-09-23T09:42:41.061Z,84.55
2018-09-23T09:43:51.191Z,85.71
2018-09-23T09:45:01.555Z,85.51
2018-09-23T09:46:11.088Z,85.71
2018-09-23T09:47:21.192Z,85.31
2018-09-23T09:48:30.766Z,85.13
2018-09-23T09:49:40.863Z,85.22
2018-09-23T09:50:50.953Z,86.05
2018-09-23T09:52:01.054Z,85.76
2018-09-23T09:53:11.153Z,85.76
2018-09-23T09:54:21.245Z,85.86
2018-09-23T09:55:31.527Z,85.13
2018-09-23T09:56:41.639Z,85.41
2018-09-23T09:57:51.740Z,84.55
2018-09-23T09:59:01.839Z,84
2018-09-23T10:00:11.917Z,83.75
2018-09-23T10:01:21.999Z,83.4
2018-09-23T10:02:32.085Z,83.1
2018-09-23T10:03:42.037Z,83.2
2018-09-23T10:04:52.394Z,83.39
2018-09-23T10:06:02.570Z,83.88
2018-09-23T10:07:12.666Z,83.35
2018-09-23T10:08:22.504Z,83.64
2018-09-23T10:09:32.606Z,83.84
2018-09-23T10:10:42.168Z,83.94
2018-09-23T10:11:51.996Z,83.74
2018-09-23T10:13:02.088Z,84.03
2018-09-23T10:14:11.645Z,83.97
2018-09-23T10:15:21.752Z,83.88
2018-09-23T10:16:31.865Z,83.69
2018-09-23T10:17:41.989Z,83.78
2018-09-23T10:18:52.065Z,83.72
2018-09-23T10:20:02.161Z,83.82
2018-09-23T10:21:12.265Z,83.92
2018-09-23T10:22:22.103Z,84.01
2018-09-23T10:23:32.866Z,84.01
2018-09-23T10:24:44.037Z,84.66
2018-09-23T10:25:54.138Z,85.1
2018-09-23T10:27:04.226Z,84.81
2018-09-23T10:28:14.332Z,85.19
2018-09-23T10:29:24.426Z,85.19
2018-09-23T10:30:33.983Z,85.29
2018-09-23T10:31:44.217Z,86.02
2018-09-23T10:32:54.709Z,85.83
2018-09-23T10:34:04.798Z,85.99
2018-09-23T10:35:14.630Z,85.89
2018-09-23T10:36:24.204Z,85.83
2018-09-23T10:37:34.308Z,84.86
2018-09-23T10:38:44.389Z,84.81
2018-09-23T10:39:54.250Z,84.52
2018-09-23T10:41:04.062Z,84.91
2018-09-23T10:42:14.218Z,83.94
2018-09-23T10:43:24.318Z,83.74
2018-09-23T10:44:34.165Z,84.07
2018-09-23T10:45:44.248Z,83.78
2018-09-23T10:46:54.327Z,84.07
2018-09-23T10:48:04.447Z,83.74
2018-09-23T10:49:14.543Z,84.32
2018-09-23T10:50:24.658Z,84.81
2018-09-23T10:51:34.758Z,85.06
2018-09-23T10:52:44.928Z,84.86
2018-09-23T10:53:55.025Z,85.02
2018-09-23T10:55:04.878Z,85.06
2018-09-23T10:56:14.993Z,85.11
2018-09-23T10:57:24.825Z,84.82
2018-09-23T10:58:34.649Z,85.02
2018-09-23T10:59:44.734Z,84.72
2018-09-23T11:00:54.587Z,84.82
2018-09-23T11:02:04.677Z,85.02
2018-09-23T11:03:14.775Z,85.15
2018-09-23T11:04:24.959Z,85.6
2018-09-23T11:05:34.803Z,85.4
2018-09-23T11:06:44.628Z,85.94
2018-09-23T11:07:54.230Z,86.38
2018-09-23T11:09:04.084Z,86.92
2018-09-23T11:10:13.916Z,87.02
2018-09-23T11:11:23.477Z,87.07
2018-09-23T11:12:33.599Z,87.07
2018-09-23T11:13:43.725Z,86.78
2018-09-23T11:14:53.829Z,86.2
2018-09-23T11:16:03.966Z,86.4
2018-09-23T11:17:14.105Z,86.78
2018-09-23T11:18:24.184Z,85.72
2018-09-23T11:19:33.769Z,85.91
2018-09-23T11:20:43.888Z,85.82
2018-09-23T11:21:54.028Z,85.82
2018-09-23T11:23:04.122Z,86.25
2018-09-23T11:24:14.350Z,86.45
2018-09-23T11:25:24.434Z,86.21
2018-09-23T11:26:34.525Z,86.41
2018-09-23T11:27:44.640Z,86.02
2018-09-23T11:28:54.740Z,85.83
2018-09-23T11:30:05.291Z,85.63
2018-09-23T11:31:15.409Z,85.73
2018-09-23T11:32:25.238Z,85.53
2018-09-23T11:33:35.500Z,85.83
2018-09-23T11:34:45.601Z,86.21
2018-09-23T11:35:55.699Z,86.17
2018-09-23T11:37:05.524Z,86.27
2018-09-23T11:38:15.617Z,85.78
2018-09-23T11:39:25.741Z,85.59
2018-09-23T11:40:35.819Z,85.59
2018-09-23T11:41:45.910Z,85.21
2018-09-23T11:42:56.255Z,84.91
2018-09-23T11:44:06.180Z,85.11
2018-09-23T11:45:16.288Z,85.49
2018-09-23T11:46:26.366Z,84.72
2018-09-23T11:47:36.470Z,85.64
2018-09-23T11:48:46.630Z,86.03
2018-09-23T11:49:56.733Z,86.13
2018-09-23T11:51:08.677Z,85.99
2018-09-23T11:52:18.783Z,85.89
2018-09-23T11:53:28.343Z,85.89
2018-09-23T11:54:38.218Z,85.89
2018-09-23T11:55:48.309Z,85.89
2018-09-23T11:56:58.381Z,85.99
2018-09-23T11:58:08.482Z,86.14
2018-09-23T11:59:18.312Z,86.87
2018-09-23T12:00:28.473Z,87.26
2018-09-23T12:01:38.056Z,87.12
2018-09-23T12:02:48.272Z,87.02
2018-09-23T12:03:58.384Z,87.55
2018-09-23T12:05:08.940Z,87.26
2018-09-23T12:06:19.070Z,87.65
2018-09-23T12:07:29.172Z,87.51
2018-09-23T12:08:39.287Z,87.7
2018-09-23T12:09:49.392Z,87.9
2018-09-23T12:10:59.510Z,87.66
2018-09-23T12:12:09.830Z,86.79
2018-09-23T12:13:20.022Z,87.18
2018-09-23T12:14:30.119Z,87.08
2018-09-23T12:15:40.426Z,86.99
2018-09-23T12:16:50.777Z,86.6
2018-09-23T12:18:02.836Z,86.65
2018-09-23T12:19:12.999Z,86.45
2018-09-23T12:20:23.087Z,85.97
2018-09-23T12:21:33.195Z,86.07
2018-09-23T12:22:43.036Z,86.07
2018-09-23T12:23:52.856Z,85.97
2018-09-23T12:25:02.721Z,86.07
2018-09-23T12:26:12.585Z,86.01
2018-09-23T12:27:22.416Z,85.82
2018-09-23T12:28:32.279Z,85.34
2018-09-23T12:29:42.597Z,85.63
2018-09-23T12:30:52.728Z,85.91
2018-09-23T12:32:02.886Z,85.72
2018-09-23T12:33:13.040Z,85.91
2018-09-23T12:34:23.520Z,85.82
2018-09-23T12:35:33.653Z,85.63
2018-09-23T12:36:43.777Z,86.01
2018-09-23T12:37:53.870Z,86.01
2018-09-23T12:39:04.172Z,86.01
2018-09-23T12:40:14.249Z,86.4
2018-09-23T12:41:24.404Z,86.65
2018-09-23T12:42:34.507Z,86.55
2018-09-23T12:43:44.612Z,86.93
2018-09-23T12:44:54.710Z,87.03
2018-09-23T12:46:04.974Z,86.45
2018-09-23T12:47:15.607Z,86.26
2018-09-23T12:48:25.715Z,86.16
2018-09-23T12:49:35.812Z,85.3
2018-09-23T12:50:45.705Z,85.05
2018-09-23T12:51:55.528Z,84.7
2018-09-23T12:53:05.729Z,84.9
2018-09-23T12:54:15.826Z,84.61
2018-09-23T12:55:25.922Z,84.32
2018-09-23T12:56:35.999Z,83.69
2018-09-23T12:57:46.100Z,83.53
2018-09-23T12:58:56.242Z,82.71
2018-09-23T13:00:08.368Z,83
2018-09-23T13:01:18.202Z,82.84
2018-09-23T13:02:28.342Z,82.6
2018-09-23T13:03:38.806Z,82.21
2018-09-23T13:04:48.899Z,83.56
2018-09-23T13:05:58.990Z,83.08
2018-09-23T13:07:10.050Z,83.81
2018-09-23T13:08:20.168Z,83.72
2018-09-23T13:09:30.279Z,83.52
2018-09-23T13:10:40.376Z,83.04
2018-09-23T13:11:50.470Z,83.42
2018-09-23T13:13:03.213Z,83.62
2018-09-23T13:14:13.332Z,83.87
2018-09-23T13:15:23.182Z,84.35
2018-09-23T13:16:33.278Z,84.44
2018-09-23T13:17:43.373Z,84.21
2018-09-23T13:18:53.653Z,84.25
2018-09-23T13:20:03.747Z,84.35
2018-09-23T13:21:13.850Z,84.64
2018-09-23T13:22:23.956Z,84.79
2018-09-23T13:23:34.056Z,85.46
2018-09-23T13:24:44.208Z,85.56
2018-09-23T13:25:54.317Z,86
2018-09-23T13:27:04.450Z,86.48
2018-09-23T13:28:14.566Z,85.91
2018-09-23T13:29:24.673Z,86.35
2018-09-23T13:30:34.527Z,86.73
2018-09-23T13:31:44.380Z,86.73
2018-09-23T13:32:54.481Z,86.54
2018-09-23T13:34:04.593Z,86.78
2018-09-23T13:35:14.147Z,86.44
2018-09-23T13:36:24.279Z,85.86
2018-09-23T13:37:34.113Z,86.15
2018-09-23T13:38:44.218Z,86.15
2018-09-23T13:39:54.335Z,86.05
2018-09-23T13:41:04.489Z,85.47
2018-09-23T13:42:14.731Z,84.84
2018-09-23T13:43:24.861Z,84.46
2018-09-23T13:44:35.011Z,84.21
2018-09-23T13:45:45.120Z,84.59
2018-09-23T13:46:55.204Z,84.44
2018-09-23T13:48:05.290Z,83.77
2018-09-23T13:49:14.859Z,83.91
2018-09-23T13:50:24.945Z,84
2018-09-23T13:51:34.778Z,83.75
2018-09-23T13:52:44.895Z,84.43
2018-09-23T13:53:55.015Z,84.39
2018-09-23T13:55:05.114Z,84.58
2018-09-23T13:56:15.221Z,84.97
2018-09-23T13:57:25.337Z,85.84
2018-09-23T13:58:35.435Z,85.5
2018-09-23T13:59:45.573Z,86.28
2018-09-23T14:00:55.689Z,86.08
2018-09-23T14:02:05.791Z,86.18
2018-09-23T14:03:15.881Z,85.99
2018-09-23T14:04:26.041Z,86.08
2018-09-23T14:05:36.241Z,86.57
2018-09-23T14:06:46.330Z,86.52
2018-09-23T14:07:56.176Z,86.82
2018-09-23T14:09:06.301Z,86.91
2018-09-23T14:10:16.419Z,86.33
2018-09-23T14:11:26.654Z,86.04
2018-09-23T14:12:36.756Z,86.43
2018-09-23T14:13:46.896Z,86.33
2018-09-23T14:14:56.717Z,86.14
2018-09-23T14:16:06.559Z,86.24
2018-09-23T14:17:16.673Z,86.43
2018-09-23T14:18:26.765Z,86.72
2018-09-23T14:19:36.586Z,86.24
2018-09-23T14:20:46.669Z,87.01
2018-09-23T14:21:56.768Z,86.91
2018-09-23T14:23:06.960Z,86.82
2018-09-23T14:24:16.812Z,86.43
2018-09-23T14:25:26.918Z,86.24
2018-09-23T14:26:37.031Z,86.14
2018-09-23T14:27:46.916Z,86.24
2018-09-23T14:28:57.036Z,86.24
2018-09-23T14:30:07.142Z,86.04
2018-09-23T14:31:17.247Z,86.33
2018-09-23T14:32:27.364Z,86.28
2018-09-23T14:33:37.492Z,86.18
2018-09-23T14:34:47.696Z,86.18
2018-09-23T14:35:57.792Z,85.99
2018-09-23T14:37:09.053Z,86.08
2018-09-23T14:38:18.890Z,86.18
2018-09-23T14:39:28.994Z,85.89
2018-09-23T14:40:38.853Z,85.31
2018-09-23T14:41:48.997Z,84.68
2018-09-23T14:42:59.180Z,84.63
2018-09-23T14:44:09.275Z,84.57
2018-09-23T14:45:19.382Z,84.19
2018-09-23T14:46:29.548Z,84.67
2018-09-23T14:47:39.690Z,85.4
2018-09-23T14:48:49.838Z,85.59
2018-09-23T14:49:59.837Z,85.98
2018-09-23T14:51:11.039Z,86.22
2018-09-23T14:52:21.175Z,86.71
2018-09-23T14:53:31.285Z,87.09
2018-09-23T14:54:41.950Z,86.66
2018-09-23T14:55:52.532Z,86.66
2018-09-23T14:57:02.379Z,86.86
2018-09-23T14:58:12.204Z,86.76
2018-09-23T14:59:22.027Z,86.86
2018-09-23T15:00:32.223Z,86.57
2018-09-23T15:01:42.283Z,87.15
2018-09-23T15:02:52.364Z,87.05
2018-09-23T15:04:01.958Z,86.76
2018-09-23T15:05:11.539Z,86.47
2018-09-23T15:06:21.813Z,85.99
2018-09-23T15:07:32.145Z,85.55
2018-09-23T15:08:42.227Z,85.01
2018-09-23T15:09:52.439Z,85.11
2018-09-23T15:11:02.553Z,85.4
2018-09-23T15:12:12.660Z,85.11
2018-09-23T15:13:22.758Z,85.21
2018-09-23T15:14:32.611Z,85.53
2018-09-23T15:15:42.726Z,85.44
2018-09-23T15:16:52.819Z,85.73
2018-09-23T15:18:02.952Z,85.93
2018-09-23T15:19:12.790Z,86.27
2018-09-23T15:20:22.667Z,86.27
2018-09-23T15:21:32.860Z,86.17
2018-09-23T15:22:43.039Z,86.17
2018-09-23T15:23:53.112Z,86.27
2018-09-23T15:25:03.218Z,86.17
2018-09-23T15:26:13.094Z,86.17
2018-09-23T15:27:23.351Z,86.94
2018-09-23T15:28:33.503Z,86.94
2018-09-23T15:29:43.343Z,87.52
2018-09-23T15:30:53.204Z,87.23
2018-09-23T15:32:03.416Z,87.43
2018-09-23T15:33:13.833Z,87.38
2018-09-23T15:34:23.985Z,87.91
2018-09-23T15:35:34.105Z,87.48